createdAt,value
2018-06-20T00:00:16.295Z,4.00
2018-06-20T00:02:44.002Z,4.90
2018-06-20T00:05:11.777Z,3.50
2018-06-20T00:07:39.618Z,3.90
2018-06-20T00:10:07.400Z,4.63
2018-06-20T00:12:35.137Z,3.50
2018-06-20T00:15:02.804Z,4.60
2018-06-20T00:17:30.727Z,5.03
2018-06-20T00:19:58.440Z,4.47
2018-06-20T00:22:26.378Z,4.37
2018-06-20T00:24:54.193Z,4.47
2018-06-20T00:27:22.079Z,4.53
2018-06-20T00:29:50.092Z,4.00
2018-06-20T00:32:18.034Z,4.83
2018-06-20T00:34:46.212Z,4.77
2018-06-20T00:37:13.995Z,3.93
2018-06-20T00:39:41.864Z,4.60
2018-06-20T00:42:09.647Z,5.30
2018-06-20T00:44:37.345Z,4.83
2018-06-20T00:47:05.100Z,4.03
2018-06-20T00:49:32.835Z,4.40
2018-06-20T00:52:00.688Z,4.47
2018-06-20T00:54:28.375Z,4.33
2018-06-20T00:56:56.096Z,4.87
2018-06-20T00:59:23.960Z,5.10
2018-06-20T01:01:52.160Z,5.30
2018-06-20T01:04:19.915Z,5.03
2018-06-20T01:06:48.063Z,5.27
2018-06-20T01:09:15.931Z,4.50
2018-06-20T01:11:43.710Z,4.30
2018-06-20T01:14:11.552Z,4.30
2018-06-20T01:16:39.804Z,4.77
2018-06-20T01:19:07.620Z,4.03
2018-06-20T01:21:35.392Z,4.80
2018-06-20T01:24:03.188Z,4.87
2018-06-20T01:26:30.899Z,4.80
2018-06-20T01:28:58.616Z,5.00
2018-06-20T01:31:26.503Z,5.27
2018-06-20T01:33:54.208Z,5.27
2018-06-20T01:36:21.961Z,5.10
2018-06-20T01:38:49.588Z,4.50
2018-06-20T01:41:17.356Z,6.20
2018-06-20T01:43:45.050Z,5.63
2018-06-20T01:46:12.871Z,4.77
2018-06-20T01:48:40.599Z,4.43
2018-06-20T01:51:08.341Z,4.70
2018-06-20T01:53:36.071Z,5.33
2018-06-20T01:56:03.868Z,5.50
2018-06-20T01:58:31.557Z,5.80
2018-06-20T02:00:59.625Z,4.60
2018-06-20T02:03:27.358Z,4.77
2018-06-20T02:05:55.496Z,4.73
2018-06-20T02:08:23.312Z,4.80
2018-06-20T02:10:51.096Z,5.23
2018-06-20T02:13:19.121Z,4.70
2018-06-20T02:15:47.140Z,5.20
2018-06-20T02:18:15.243Z,5.03
2018-06-20T02:20:43.078Z,6.00
2018-06-20T02:23:10.812Z,4.87
2018-06-20T02:25:38.595Z,4.67
2018-06-20T02:28:06.475Z,5.20
2018-06-20T02:30:34.273Z,4.47
2018-06-20T02:33:02.008Z,5.30
2018-06-20T02:35:29.620Z,4.20
2018-06-20T02:37:57.452Z,4.97
2018-06-20T02:40:25.051Z,4.83
2018-06-20T02:42:52.759Z,4.70
2018-06-20T02:45:20.500Z,4.03
2018-06-20T02:47:48.181Z,4.70
2018-06-20T02:50:15.888Z,4.10
2018-06-20T02:52:43.607Z,4.80
2018-06-20T02:55:11.308Z,4.80
2018-06-20T02:57:45.839Z,3.80
2018-06-20T03:00:13.564Z,5.13
2018-06-20T03:02:41.299Z,4.23
2018-06-20T03:05:09.008Z,4.00
2018-06-20T03:07:36.712Z,4.37
2018-06-20T03:10:04.516Z,4.07
2018-06-20T03:12:32.248Z,3.70
2018-06-20T03:14:59.966Z,4.40
2018-06-20T03:17:27.676Z,4.17
2018-06-20T03:19:55.404Z,3.80
2018-06-20T03:22:23.095Z,3.60
2018-06-20T03:24:50.803Z,4.10
2018-06-20T03:27:18.587Z,4.37
2018-06-20T03:29:47.108Z,4.20
2018-06-20T03:32:14.839Z,5.00
2018-06-20T03:34:42.592Z,4.10
2018-06-20T03:37:10.180Z,4.47
2018-06-20T03:39:37.861Z,4.20
2018-06-20T03:42:05.585Z,4.20
2018-06-20T03:44:33.151Z,4.20
2018-06-20T03:47:00.883Z,4.27
2018-06-20T03:49:28.579Z,4.47
2018-06-20T03:51:56.291Z,4.40
2018-06-20T03:54:24.044Z,4.17
2018-06-20T03:56:51.752Z,4.50
2018-06-20T03:59:19.499Z,4.60
2018-06-20T04:01:47.208Z,4.80
2018-06-20T04:04:14.948Z,4.20
2018-06-20T04:06:42.551Z,4.30
2018-06-20T04:09:12.135Z,4.60
2018-06-20T04:11:40.171Z,4.20
2018-06-20T04:14:07.908Z,4.87
2018-06-20T04:16:35.649Z,5.20
2018-06-20T04:19:03.464Z,4.70
2018-06-20T04:21:31.164Z,4.20
2018-06-20T04:23:58.891Z,4.67
2018-06-20T04:26:26.594Z,5.20
2018-06-20T04:28:54.336Z,3.70
2018-06-20T04:31:21.906Z,4.43
2018-06-20T04:33:49.520Z,4.83
2018-06-20T04:36:17.220Z,4.50
2018-06-20T04:38:44.883Z,5.10
2018-06-20T04:41:12.462Z,6.10
2018-06-20T04:43:40.180Z,5.10
2018-06-20T04:46:07.860Z,5.60
2018-06-20T04:48:35.479Z,4.97
2018-06-20T04:51:03.195Z,5.77
2018-06-20T04:53:30.803Z,4.73
2018-06-20T04:55:58.544Z,5.27
2018-06-20T04:58:26.251Z,6.20
2018-06-20T05:00:54.040Z,5.07
2018-06-20T05:03:21.719Z,5.90
2018-06-20T05:05:49.350Z,5.23
2018-06-20T05:08:17.051Z,5.90
2018-06-20T05:10:44.769Z,5.40
2018-06-20T05:13:12.447Z,5.67
2018-06-20T05:15:40.094Z,6.53
2018-06-20T05:18:07.783Z,6.17
2018-06-20T05:20:35.376Z,6.57
2018-06-20T05:23:03.090Z,5.53
2018-06-20T05:25:30.887Z,5.50
2018-06-20T05:27:58.592Z,5.73
2018-06-20T05:30:26.292Z,6.63
2018-06-20T05:32:54.075Z,5.73
2018-06-20T05:35:21.730Z,5.60
2018-06-20T05:37:49.377Z,8.03
2018-06-20T05:40:17.259Z,5.80
2018-06-20T05:42:45.001Z,6.03
2018-06-20T05:45:12.713Z,4.97
2018-06-20T05:47:40.416Z,5.97
2018-06-20T05:50:08.149Z,6.27
2018-06-20T05:52:35.875Z,5.63
2018-06-20T05:55:03.495Z,6.13
2018-06-20T05:57:31.249Z,5.30
2018-06-20T05:59:58.984Z,6.90
2018-06-20T06:02:26.711Z,5.87
2018-06-20T06:04:54.463Z,5.77
2018-06-20T06:07:22.160Z,5.70
2018-06-20T06:09:49.771Z,6.17
2018-06-20T06:12:17.525Z,5.60
2018-06-20T06:14:45.247Z,6.00
2018-06-20T06:17:12.922Z,5.73
2018-06-20T06:19:41.260Z,5.90
2018-06-20T06:22:08.959Z,4.83
2018-06-20T06:24:36.535Z,5.10
2018-06-20T06:27:04.275Z,5.27
2018-06-20T06:29:31.984Z,5.60
2018-06-20T06:31:59.718Z,5.27
2018-06-20T06:34:27.483Z,5.80
2018-06-20T06:36:55.208Z,5.20
2018-06-20T06:39:22.943Z,6.37
2018-06-20T06:41:50.662Z,6.37
2018-06-20T06:44:18.228Z,5.20
2018-06-20T06:46:45.981Z,6.40
2018-06-20T06:49:13.599Z,5.73
2018-06-20T06:51:41.313Z,6.00
2018-06-20T06:54:09.020Z,6.87
2018-06-20T06:56:36.735Z,7.53
2018-06-20T06:59:04.315Z,7.73
2018-06-20T07:01:32.032Z,6.23
2018-06-20T07:03:59.721Z,8.47
2018-06-20T07:06:27.326Z,7.10
2018-06-20T07:08:55.083Z,7.17
2018-06-20T07:11:22.831Z,6.70
2018-06-20T07:13:50.584Z,5.47
2018-06-20T07:16:18.316Z,6.30
2018-06-20T07:18:46.012Z,5.93
2018-06-20T07:21:13.743Z,6.20
2018-06-20T07:23:41.512Z,6.17
2018-06-20T07:26:09.259Z,6.03
2018-06-20T07:28:36.959Z,5.53
2018-06-20T07:31:04.569Z,7.50
2018-06-20T07:33:32.255Z,5.47
2018-06-20T07:36:00.026Z,5.20
2018-06-20T07:38:27.672Z,6.30
2018-06-20T07:40:55.373Z,6.13
2018-06-20T07:43:22.982Z,6.00
2018-06-20T07:45:50.712Z,6.20
2018-06-20T07:48:18.442Z,7.80
2018-06-20T07:50:46.222Z,5.27
2018-06-20T07:53:13.870Z,5.77
2018-06-20T07:55:41.627Z,4.20
2018-06-20T07:58:09.527Z,3.80
2018-06-20T08:00:42.761Z,4.83
2018-06-20T08:03:17.259Z,2.87
2018-06-20T08:05:50.923Z,4.00
2018-06-20T08:08:24.288Z,4.60
2018-06-20T08:10:57.714Z,5.07
2018-06-20T08:13:31.052Z,4.23
2018-06-20T08:16:04.412Z,3.77
2018-06-20T08:18:37.684Z,3.27
2018-06-20T08:21:05.636Z,3.70
2018-06-20T08:23:33.352Z,3.43
2018-06-20T08:26:01.086Z,3.27
2018-06-20T08:28:28.862Z,3.33
2018-06-20T08:30:56.599Z,3.10
2018-06-20T08:33:24.339Z,3.10
2018-06-20T08:35:52.079Z,4.17
2018-06-20T08:38:19.864Z,4.17
2018-06-20T08:40:47.817Z,3.27
2018-06-20T08:43:15.551Z,3.37
2018-06-20T08:45:43.647Z,4.07
2018-06-20T08:48:11.384Z,4.23
2018-06-20T08:50:39.059Z,4.50
2018-06-20T08:53:07.057Z,4.87
2018-06-20T08:55:34.849Z,4.70
2018-06-20T08:58:02.580Z,3.77
2018-06-20T09:00:36.012Z,3.57
2018-06-20T09:03:03.817Z,3.13
2018-06-20T09:05:37.139Z,3.03
2018-06-20T09:08:10.517Z,3.17
2018-06-20T09:10:43.867Z,3.30
2018-06-20T09:13:17.527Z,3.17
2018-06-20T09:15:50.609Z,3.13
2018-06-20T09:18:23.687Z,3.37
2018-06-20T09:20:51.440Z,3.73
2018-06-20T09:23:19.518Z,3.23
2018-06-20T09:25:47.285Z,3.63
2018-06-20T09:28:15.036Z,3.40
2018-06-20T09:30:42.735Z,3.63
2018-06-20T09:33:10.782Z,2.80
2018-06-20T09:35:38.499Z,2.70
2018-06-20T09:38:06.277Z,2.70
2018-06-20T09:40:33.997Z,3.03
2018-06-20T09:43:01.559Z,2.77
2018-06-20T09:45:29.260Z,2.77
2018-06-20T09:47:56.986Z,2.90
2018-06-20T09:50:30.461Z,2.67
2018-06-20T09:52:58.167Z,4.40
2018-06-20T09:55:25.880Z,3.50
2018-06-20T09:57:53.666Z,2.97
2018-06-20T10:00:27.073Z,3.60
2018-06-20T10:03:00.470Z,3.20
2018-06-20T10:05:33.534Z,3.50
2018-06-20T10:08:06.983Z,2.43
2018-06-20T10:10:40.480Z,2.27
2018-06-20T10:13:17.802Z,3.20
2018-06-20T10:15:45.572Z,3.23
2018-06-20T10:18:13.331Z,3.40
2018-06-20T10:20:41.015Z,2.77
2018-06-20T10:23:08.792Z,2.97
2018-06-20T10:25:36.399Z,2.27
2018-06-20T10:28:04.201Z,3.00
2018-06-20T10:30:32.121Z,2.93
2018-06-20T10:32:59.841Z,2.37
2018-06-20T10:35:27.576Z,2.30
2018-06-20T10:37:55.332Z,2.00
2018-06-20T10:40:23.099Z,2.30
2018-06-20T10:42:50.832Z,1.90
2018-06-20T10:45:24.232Z,2.13
2018-06-20T10:47:52.020Z,1.90
2018-06-20T10:50:20.049Z,1.63
2018-06-20T10:52:47.818Z,2.20
2018-06-20T10:55:16.622Z,2.03
2018-06-20T10:57:50.022Z,1.77
2018-06-20T11:00:23.335Z,1.73
2018-06-20T11:02:56.804Z,1.77
2018-06-20T11:05:30.433Z,2.03
2018-06-20T11:09:02.675Z,1.90
2018-06-20T11:11:36.072Z,1.73
2018-06-20T11:14:03.864Z,1.90
2018-06-20T11:16:32.380Z,1.90
2018-06-20T11:19:00.156Z,1.60
2018-06-20T11:21:27.777Z,1.90
2018-06-20T11:23:55.582Z,2.83
2018-06-20T11:26:23.336Z,1.57
2018-06-20T11:28:51.092Z,1.63
2018-06-20T11:31:18.877Z,1.87
2018-06-20T11:33:46.761Z,1.70
2018-06-20T11:36:14.594Z,1.63
2018-06-20T11:38:42.292Z,1.60
2018-06-20T11:41:10.031Z,4.80
2018-06-20T11:43:37.746Z,3.07
2018-06-20T11:46:11.136Z,1.70
2018-06-20T11:48:38.874Z,1.67
2018-06-20T11:51:06.700Z,1.37
2018-06-20T11:53:34.520Z,1.97
2018-06-20T11:56:02.164Z,1.43
2018-06-20T11:58:35.337Z,1.60
2018-06-20T12:01:08.640Z,1.60
2018-06-20T12:03:42.062Z,1.10
2018-06-20T12:06:15.331Z,2.20
2018-06-20T12:08:48.759Z,1.40
2018-06-20T12:11:22.106Z,1.60
2018-06-20T12:13:55.442Z,1.50
2018-06-20T12:16:23.839Z,1.37
2018-06-20T12:18:57.224Z,1.60
2018-06-20T12:21:30.653Z,1.93
2018-06-20T12:24:04.912Z,1.70
2018-06-20T12:26:38.271Z,1.90
2018-06-20T12:29:11.706Z,1.57
2018-06-20T12:31:44.954Z,1.57
2018-06-20T12:34:18.477Z,1.30
2018-06-20T12:36:51.937Z,1.33
2018-06-20T12:39:19.067Z,1.40
2018-06-20T12:41:52.392Z,1.77
2018-06-20T12:44:25.700Z,1.53
2018-06-20T12:47:13.027Z,1.10
2018-06-20T12:49:46.352Z,1.87
2018-06-20T12:52:15.283Z,1.27
2018-06-20T12:54:43.671Z,2.40
2018-06-20T12:57:12.309Z,1.43
2018-06-20T12:59:40.029Z,1.47
2018-06-20T13:02:07.776Z,1.20
2018-06-20T13:04:35.520Z,1.20
2018-06-20T13:07:03.135Z,1.17
2018-06-20T13:09:30.871Z,1.40
2018-06-20T13:11:58.590Z,1.47
2018-06-20T13:14:26.500Z,1.40
2018-06-20T13:16:54.264Z,1.10
2018-06-20T13:19:22.019Z,1.27
2018-06-20T13:21:49.751Z,1.50
2018-06-20T13:24:17.546Z,1.20
2018-06-20T13:26:45.263Z,1.40
2018-06-20T13:29:13.961Z,1.97
2018-06-20T13:31:47.365Z,1.90
2018-06-20T13:34:20.816Z,3.30
2018-06-20T13:36:54.147Z,1.60
2018-06-20T13:39:27.421Z,2.00
2018-06-20T13:42:00.359Z,1.40
2018-06-20T13:44:28.686Z,1.30
2018-06-20T13:47:01.892Z,1.53
2018-06-20T13:49:29.672Z,1.30
2018-06-20T13:51:57.380Z,1.53
2018-06-20T13:54:25.103Z,1.27
2018-06-20T13:56:53.420Z,1.40
2018-06-20T13:59:21.205Z,1.10
2018-06-20T14:01:48.915Z,1.33
2018-06-20T14:04:16.527Z,1.50
2018-06-20T14:06:44.284Z,1.43
2018-06-20T14:09:12.325Z,1.53
2018-06-20T14:11:40.515Z,1.30
2018-06-20T14:14:08.220Z,1.20
2018-06-20T14:16:35.992Z,1.60
2018-06-20T14:19:03.728Z,1.20
2018-06-20T14:21:40.744Z,1.10
2018-06-20T14:24:09.460Z,1.50
2018-06-20T14:26:38.167Z,1.07
2018-06-20T14:29:06.540Z,1.40
2018-06-20T14:31:40.149Z,1.20
2018-06-20T14:34:13.377Z,1.53
2018-06-20T14:36:46.861Z,1.23
2018-06-20T14:39:20.239Z,1.13
2018-06-20T14:41:53.552Z,1.93
2018-06-20T14:44:21.256Z,1.53
2018-06-20T14:46:48.995Z,1.50
2018-06-20T14:49:16.743Z,1.30
2018-06-20T14:51:44.492Z,1.50
2018-06-20T14:54:12.307Z,1.47
2018-06-20T14:56:40.128Z,1.27
2018-06-20T14:59:07.862Z,1.23
2018-06-20T15:01:35.668Z,1.20
2018-06-20T15:04:03.550Z,1.20
2018-06-20T15:06:31.314Z,0.87
2018-06-20T15:08:59.104Z,1.97
2018-06-20T15:11:26.867Z,1.60
2018-06-20T15:13:54.528Z,1.07
2018-06-20T15:16:27.926Z,1.17
2018-06-20T15:18:55.599Z,1.30
2018-06-20T15:21:23.280Z,1.10
2018-06-20T15:23:50.911Z,1.77
2018-06-20T15:26:24.211Z,1.47
2018-06-20T15:28:57.631Z,1.57
2018-06-20T15:31:31.023Z,1.50
2018-06-20T15:34:04.363Z,1.80
2018-06-20T15:36:38.066Z,1.20
2018-06-20T15:39:07.162Z,1.10
2018-06-20T15:41:34.967Z,1.87
2018-06-20T15:44:03.208Z,1.83
2018-06-20T15:46:30.952Z,1.23
2018-06-20T15:48:58.731Z,1.20
2018-06-20T15:51:26.541Z,1.30
2018-06-20T15:53:54.294Z,1.70
2018-06-20T15:56:22.361Z,1.80
2018-06-20T15:58:50.515Z,1.80
2018-06-20T16:01:18.247Z,1.40
2018-06-20T16:03:46.038Z,1.77
2018-06-20T16:06:13.819Z,1.40
2018-06-20T16:08:47.235Z,2.03
2018-06-20T16:11:15.032Z,1.90
2018-06-20T16:13:42.784Z,1.50
2018-06-20T16:16:10.784Z,1.97
2018-06-20T16:18:42.583Z,2.10
2018-06-20T16:21:15.997Z,1.53
2018-06-20T16:23:49.132Z,1.50
2018-06-20T16:26:22.496Z,1.83
2018-06-20T16:28:55.808Z,27.70
2018-06-20T16:31:23.864Z,1.60
2018-06-20T16:33:51.722Z,2.20
2018-06-20T16:36:19.327Z,1.30
2018-06-20T16:38:47.032Z,1.10
2018-06-20T16:41:14.863Z,1.67
2018-06-20T16:43:42.698Z,4.70
2018-06-20T16:46:10.483Z,1.73
2018-06-20T16:48:38.275Z,2.73
2018-06-20T16:51:06.008Z,2.10
2018-06-20T16:53:33.815Z,1.90
2018-06-20T16:56:01.684Z,1.50
2018-06-20T16:58:29.404Z,1.47
2018-06-20T17:01:02.819Z,1.00
2018-06-20T17:03:30.446Z,1.60
2018-06-20T17:05:58.243Z,1.13
2018-06-20T17:08:26.167Z,1.30
2018-06-20T17:10:53.751Z,1.60
2018-06-20T17:13:27.201Z,1.33
2018-06-20T17:16:00.647Z,2.00
2018-06-20T17:18:34.160Z,1.67
2018-06-20T17:21:08.059Z,1.10
2018-06-20T17:23:41.464Z,1.93
2018-06-20T17:26:09.208Z,1.60
2018-06-20T17:28:36.980Z,1.90
2018-06-20T17:31:04.759Z,1.83
2018-06-20T17:33:32.519Z,1.60
2018-06-20T17:36:00.476Z,2.23
2018-06-20T17:38:28.387Z,2.00
2018-06-20T17:40:56.240Z,1.07
2018-06-20T17:43:24.012Z,1.20
2018-06-20T17:45:51.745Z,1.83
2018-06-20T17:48:19.523Z,2.60
2018-06-20T17:50:47.271Z,2.17
2018-06-20T17:53:15.107Z,1.60
2018-06-20T17:55:42.763Z,1.27
2018-06-20T17:58:10.432Z,1.60
2018-06-20T18:00:43.700Z,1.40
2018-06-20T18:03:11.544Z,1.40
2018-06-20T18:05:44.881Z,2.33
2018-06-20T18:08:18.240Z,2.27
2018-06-20T18:10:51.696Z,1.87
2018-06-20T18:13:24.156Z,2.63
2018-06-20T18:15:57.592Z,3.00
2018-06-20T18:18:25.539Z,2.03
2018-06-20T18:20:53.388Z,1.80
2018-06-20T18:23:21.033Z,1.70
2018-06-20T18:25:48.844Z,1.63
2018-06-20T18:28:16.829Z,1.30
2018-06-20T18:30:44.446Z,1.83
2018-06-20T18:33:12.500Z,1.83
2018-06-20T18:35:40.492Z,2.17
2018-06-20T18:38:08.284Z,3.03
2018-06-20T18:40:36.112Z,2.60
2018-06-20T18:43:03.883Z,2.13
2018-06-20T18:45:31.734Z,1.93
2018-06-20T18:48:05.119Z,1.40
2018-06-20T18:50:32.931Z,2.20
2018-06-20T18:53:00.906Z,1.90
2018-06-20T18:55:28.711Z,1.83
2018-06-20T18:59:05.332Z,1.57
2018-06-20T19:01:38.749Z,1.43
2018-06-20T19:04:12.260Z,1.97
2018-06-20T19:06:45.666Z,1.70
2018-06-20T19:09:15.782Z,1.70
2018-06-20T19:11:44.026Z,1.83
2018-06-20T19:14:11.892Z,1.53
2018-06-20T19:16:39.551Z,2.03
2018-06-20T19:19:07.309Z,1.57
2018-06-20T19:21:35.599Z,1.77
2018-06-20T19:24:03.295Z,1.90
2018-06-20T19:26:31.302Z,2.10
2018-06-20T19:28:59.339Z,1.90
2018-06-20T19:31:27.155Z,1.93
2018-06-20T19:33:55.009Z,2.03
2018-06-20T19:36:22.797Z,2.23
2018-06-20T19:38:50.623Z,2.07
2018-06-20T19:41:18.489Z,1.60
2018-06-20T19:43:51.831Z,1.87
2018-06-20T19:46:19.588Z,2.40
2018-06-20T19:48:47.322Z,1.70
2018-06-20T19:51:15.164Z,2.13
2018-06-20T19:53:44.158Z,2.90
2018-06-20T19:56:12.057Z,3.57
2018-06-20T19:58:39.839Z,2.73
2018-06-20T20:01:07.568Z,3.63
2018-06-20T20:03:35.427Z,3.57
2018-06-20T20:06:03.200Z,2.77
2018-06-20T20:08:30.995Z,2.83
2018-06-20T20:10:58.739Z,2.43
2018-06-20T20:13:26.522Z,2.03
2018-06-20T20:15:54.279Z,3.03
2018-06-20T20:18:22.070Z,6.57
2018-06-20T20:20:49.713Z,6.53
2018-06-20T20:23:18.250Z,16.00
2018-06-20T20:25:46.067Z,14.33
2018-06-20T20:28:13.896Z,9.70
2018-06-20T20:30:41.682Z,8.50
2018-06-20T20:33:09.463Z,10.30
2018-06-20T20:35:37.260Z,10.40
2018-06-20T20:38:05.069Z,6.63
2018-06-20T20:40:32.816Z,4.50
2018-06-20T20:43:00.657Z,4.03
2018-06-20T20:45:28.441Z,4.50
2018-06-20T20:47:56.190Z,2.60
2018-06-20T20:50:24.180Z,2.63
2018-06-20T20:52:51.996Z,15.73
2018-06-20T20:55:19.766Z,4.07
2018-06-20T20:57:47.371Z,3.07
2018-06-20T21:00:15.216Z,3.53
2018-06-20T21:02:42.956Z,4.10
2018-06-20T21:05:10.591Z,3.50
2018-06-20T21:07:38.348Z,4.13
2018-06-20T21:10:06.095Z,3.50
2018-06-20T21:12:33.907Z,3.23
2018-06-20T21:15:01.707Z,2.80
2018-06-20T21:17:29.488Z,3.40
2018-06-20T21:19:57.242Z,2.70
2018-06-20T21:22:24.995Z,2.73
2018-06-20T21:24:52.781Z,2.93
2018-06-20T21:27:20.601Z,2.60
2018-06-20T21:29:48.203Z,2.63
2018-06-20T21:32:15.956Z,3.10
2018-06-20T21:34:43.737Z,2.90
2018-06-20T21:37:11.520Z,2.90
2018-06-20T21:39:39.332Z,2.77
2018-06-20T21:42:06.962Z,3.00
2018-06-20T21:44:34.702Z,2.67
2018-06-20T21:47:02.561Z,2.70
2018-06-20T21:49:30.283Z,2.80
2018-06-20T21:51:57.910Z,3.30
2018-06-20T21:54:25.652Z,3.00
2018-06-20T21:56:53.371Z,3.47
2018-06-20T21:59:21.011Z,3.43
2018-06-20T22:01:48.752Z,3.30
2018-06-20T22:04:16.499Z,3.10
2018-06-20T22:06:44.232Z,3.30
2018-06-20T22:09:11.883Z,2.90
2018-06-20T22:11:41.523Z,3.40
2018-06-20T22:14:09.487Z,3.07
2018-06-20T22:16:37.656Z,4.40
2018-06-20T22:19:05.522Z,3.70
2018-06-20T22:21:33.380Z,3.67
2018-06-20T22:24:01.153Z,3.97
2018-06-20T22:26:29.132Z,3.67
2018-06-20T22:28:56.884Z,3.60
2018-06-20T22:31:24.648Z,4.37
2018-06-20T22:33:52.552Z,3.50
2018-06-20T22:36:20.367Z,3.40
2018-06-20T22:38:48.037Z,3.10
2018-06-20T22:41:15.670Z,3.77
2018-06-20T22:43:43.442Z,3.50
2018-06-20T22:46:11.309Z,2.47
2018-06-20T22:48:39.084Z,3.50
2018-06-20T22:51:06.903Z,4.13
2018-06-20T22:53:34.635Z,3.40
2018-06-20T22:56:02.444Z,3.53
2018-06-20T22:58:30.172Z,3.30
2018-06-20T23:00:57.912Z,3.93
2018-06-20T23:03:25.635Z,4.33
2018-06-20T23:05:53.564Z,3.80
2018-06-20T23:08:21.320Z,4.00
2018-06-20T23:10:49.043Z,4.50
2018-06-20T23:13:16.786Z,3.87
2018-06-20T23:15:44.520Z,4.30
2018-06-20T23:18:12.149Z,3.20
2018-06-20T23:20:39.920Z,3.23
2018-06-20T23:23:07.588Z,3.73
2018-06-20T23:25:35.207Z,3.23
2018-06-20T23:28:02.965Z,3.80
2018-06-20T23:30:30.759Z,3.80
2018-06-20T23:32:58.527Z,3.20
2018-06-20T23:35:26.260Z,3.63
2018-06-20T23:37:54.025Z,3.53
2018-06-20T23:40:21.730Z,4.17
2018-06-20T23:42:49.355Z,3.73
2018-06-20T23:45:17.149Z,4.10
2018-06-20T23:47:45.057Z,5.57
2018-06-20T23:50:12.795Z,4.50
2018-06-20T23:52:40.655Z,3.70
2018-06-20T23:55:08.377Z,4.70
2018-06-20T23:57:36.186Z,4.10
